createdAt,value
2018-04-22T00:00:11.380Z,58.37
2018-04-22T00:01:11.400Z,58.86
2018-04-22T00:02:11.420Z,58.66
2018-04-22T00:03:11.433Z,58.95
2018-04-22T00:04:11.454Z,58.37
2018-04-22T00:05:11.466Z,59.17
2018-04-22T00:06:11.489Z,59.55
2018-04-22T00:07:11.505Z,58.59
2018-04-22T00:08:11.522Z,58.79
2018-04-22T00:09:11.536Z,58.31
2018-04-22T00:10:11.557Z,58.18
2018-04-22T00:11:11.571Z,58.50
2018-04-22T00:12:11.597Z,59.05
2018-04-22T00:13:11.797Z,58.86
2018-04-22T00:15:11.659Z,60.61
2018-04-22T00:16:11.741Z,59.94
2018-04-22T00:17:11.709Z,58.50
2018-04-22T00:18:11.705Z,59.08
2018-04-22T00:19:11.783Z,58.50
2018-04-22T00:20:11.731Z,58.31
2018-04-22T00:21:11.825Z,58.95
2018-04-22T00:22:11.772Z,59.52
2018-04-22T00:23:11.783Z,59.23
2018-04-22T00:24:11.797Z,59.91
2018-04-22T00:25:11.816Z,58.95
2018-04-22T00:26:11.832Z,59.62
2018-04-22T00:27:11.867Z,59.72
2018-04-22T00:28:11.871Z,59.91
2018-04-22T00:29:11.899Z,60.58
2018-04-22T00:30:11.905Z,60.19
2018-04-22T00:31:11.926Z,60.58
2018-04-22T00:32:11.940Z,60.58
2018-04-22T00:33:11.954Z,61.02
2018-04-22T00:34:11.976Z,60.96
2018-04-22T00:35:11.990Z,61.63
2018-04-22T00:36:12.006Z,60.48
2018-04-22T00:37:12.032Z,60.00
2018-04-22T00:38:12.044Z,59.62
2018-04-22T00:39:12.058Z,60.19
2018-04-22T00:40:12.073Z,60.29
2018-04-22T00:41:12.098Z,59.81
2018-04-22T00:42:12.110Z,60.38
2018-04-22T00:43:12.127Z,60.00
2018-04-22T00:44:12.149Z,59.81
2018-04-22T00:45:12.166Z,59.62
2018-04-22T00:46:12.184Z,59.72
2018-04-22T00:47:12.233Z,59.59
2018-04-22T00:48:12.229Z,60.48
2018-04-22T00:49:12.498Z,60.67
2018-04-22T00:53:12.894Z,60.29
2018-04-22T00:54:12.320Z,60.38
2018-04-22T00:55:12.336Z,60.48
2018-04-22T00:56:12.357Z,60.29
2018-04-22T00:57:12.370Z,60.19
2018-04-22T00:58:12.394Z,60.19
2018-04-22T00:59:12.408Z,60.10
2018-04-22T01:00:12.441Z,60.48
2018-04-22T01:01:12.480Z,60.55
2018-04-22T01:02:12.462Z,60.64
2018-04-22T01:03:12.501Z,60.16
2018-04-22T01:04:12.497Z,60.64
2018-04-22T01:05:12.508Z,61.12
2018-04-22T01:06:12.524Z,60.67
2018-04-22T01:07:12.545Z,61.25
2018-04-22T01:08:12.558Z,61.69
2018-04-22T01:09:12.577Z,61.02
2018-04-22T01:10:12.602Z,61.69
2018-04-22T01:11:12.629Z,61.98
2018-04-22T01:12:12.635Z,62.08
2018-04-22T01:13:12.656Z,62.84
2018-04-22T01:14:12.662Z,62.74
2018-04-22T01:15:12.682Z,62.74
2018-04-22T01:16:12.697Z,63.13
2018-04-22T01:17:12.718Z,63.23
2018-04-22T01:18:12.736Z,62.37
2018-04-22T01:19:12.750Z,62.74
2018-04-22T01:20:12.775Z,62.46
2018-04-22T01:21:12.788Z,63.03
2018-04-22T01:22:12.839Z,62.65
2018-04-22T01:23:12.906Z,62.94
2018-04-22T01:24:12.838Z,63.19
2018-04-22T01:25:12.853Z,63.10
2018-04-22T01:26:12.889Z,63.19
2018-04-22T01:27:12.889Z,63.19
2018-04-22T01:28:12.907Z,62.81
2018-04-22T01:29:12.926Z,62.71
2018-04-22T01:30:12.949Z,63.80
2018-04-22T01:31:12.969Z,63.99
2018-04-22T01:32:13.021Z,62.90
2018-04-22T01:33:12.992Z,62.71
2018-04-22T01:34:13.013Z,63.00
2018-04-22T01:35:13.032Z,62.94
2018-04-22T01:36:13.045Z,63.67
2018-04-22T01:37:13.066Z,63.29
2018-04-22T01:38:13.079Z,63.19
2018-04-22T01:39:13.100Z,63.57
2018-04-22T01:40:13.113Z,62.71
2018-04-22T01:41:13.129Z,63.19
2018-04-22T01:42:13.149Z,63.29
2018-04-22T01:43:13.169Z,63.19
2018-04-22T01:44:13.181Z,63.19
2018-04-22T01:45:13.196Z,63.10
2018-04-22T01:46:13.218Z,63.76
2018-04-22T01:47:13.232Z,63.39
2018-04-22T01:48:13.258Z,63.39
2018-04-22T01:49:13.276Z,63.39
2018-04-22T01:50:13.285Z,63.10
2018-04-22T01:51:13.301Z,63.39
2018-04-22T01:52:13.317Z,63.19
2018-04-22T01:53:13.333Z,63.67
2018-04-22T01:54:13.357Z,63.76
2018-04-22T01:55:13.371Z,62.90
2018-04-22T01:56:13.389Z,63.48
2018-04-22T01:57:13.413Z,63.10
2018-04-22T01:59:13.437Z,63.76
2018-04-22T02:00:13.503Z,63.67
2018-04-22T02:01:13.556Z,63.10
2018-04-22T02:02:13.512Z,63.29
2018-04-22T02:03:13.505Z,63.67
2018-04-22T02:04:13.520Z,63.76
2018-04-22T02:05:13.540Z,63.76
2018-04-22T02:06:13.555Z,63.76
2018-04-22T02:07:13.574Z,63.96
2018-04-22T02:08:13.594Z,63.19
2018-04-22T02:09:13.605Z,63.00
2018-04-22T02:10:13.623Z,63.96
2018-04-22T02:11:13.648Z,63.96
2018-04-22T02:12:13.663Z,63.76
2018-04-22T02:13:13.675Z,63.48
2018-04-22T02:14:13.691Z,63.29
2018-04-22T02:15:13.706Z,63.96
2018-04-22T02:16:13.723Z,64.15
2018-04-22T02:17:13.742Z,65.20
2018-04-22T02:18:13.756Z,64.31
2018-04-22T02:19:13.773Z,64.22
2018-04-22T02:20:13.792Z,65.11
2018-04-22T02:21:13.806Z,64.43
2018-04-22T02:22:13.827Z,64.25
2018-04-22T02:23:13.842Z,64.91
2018-04-22T02:24:13.859Z,64.91
2018-04-22T02:25:13.877Z,64.43
2018-04-22T02:26:13.893Z,64.25
2018-04-22T02:27:13.972Z,65.07
2018-04-22T02:28:13.968Z,65.17
2018-04-22T02:29:14.002Z,64.40
2018-04-22T02:30:13.975Z,64.88
2018-04-22T02:31:13.980Z,64.98
2018-04-22T02:32:13.997Z,65.36
2018-04-22T02:33:14.012Z,65.45
2018-04-22T02:34:14.027Z,65.45
2018-04-22T02:35:14.043Z,65.93
2018-04-22T02:36:14.064Z,65.45
2018-04-22T02:37:14.086Z,66.03
2018-04-22T02:38:14.092Z,65.93
2018-04-22T02:39:14.118Z,66.31
2018-04-22T02:40:14.131Z,66.50
2018-04-22T02:41:14.143Z,66.41
2018-04-22T02:42:14.165Z,66.60
2018-04-22T02:43:14.178Z,66.50
2018-04-22T02:44:14.203Z,66.28
2018-04-22T02:45:14.211Z,66.41
2018-04-22T02:46:14.227Z,66.60
2018-04-22T02:47:14.269Z,67.08
2018-04-22T02:48:14.265Z,66.41
2018-04-22T02:49:14.283Z,66.03
2018-04-22T02:50:14.286Z,66.89
2018-04-22T02:51:14.303Z,67.36
2018-04-22T02:52:14.326Z,67.94
2018-04-22T02:53:14.337Z,67.08
2018-04-22T02:54:14.355Z,66.31
2018-04-22T02:55:14.370Z,66.60
2018-04-22T02:56:14.388Z,66.70
2018-04-22T02:57:14.406Z,65.93
2018-04-22T02:58:14.423Z,66.50
2018-04-22T02:59:14.506Z,65.93
2018-04-22T03:00:14.937Z,66.13
2018-04-22T03:01:14.470Z,66.22
2018-04-22T03:02:14.491Z,65.64
2018-04-22T03:03:14.505Z,66.70
2018-04-22T03:04:14.519Z,65.26
2018-04-22T03:05:14.542Z,65.07
2018-04-22T03:06:14.553Z,65.74
2018-04-22T03:07:14.570Z,65.55
2018-04-22T03:08:14.586Z,65.55
2018-04-22T03:09:14.605Z,65.64
2018-04-22T03:10:14.620Z,65.55
2018-04-22T03:11:14.638Z,66.13
2018-04-22T03:12:14.654Z,66.13
2018-04-22T03:13:14.674Z,65.36
2018-04-22T03:14:14.688Z,65.84
2018-04-22T03:15:14.706Z,66.41
2018-04-22T03:16:14.725Z,65.93
2018-04-22T03:17:14.738Z,66.03
2018-04-22T03:18:14.753Z,66.13
2018-04-22T03:19:14.770Z,66.89
2018-04-22T03:20:14.788Z,66.03
2018-04-22T03:21:14.815Z,66.70
2018-04-22T03:22:14.858Z,66.03
2018-04-22T03:23:14.838Z,65.36
2018-04-22T03:24:14.854Z,66.50
2018-04-22T03:25:14.875Z,66.60
2018-04-22T03:26:14.887Z,66.22
2018-04-22T03:27:14.925Z,66.03
2018-04-22T03:28:14.928Z,66.99
2018-04-22T03:29:14.943Z,66.70
2018-04-22T03:31:15.094Z,67.18
2018-04-22T03:32:15.480Z,67.46
2018-04-22T03:33:15.013Z,66.89
2018-04-22T03:34:15.070Z,67.08
2018-04-22T03:35:15.379Z,66.50
2018-04-22T03:36:15.114Z,66.70
2018-04-22T03:37:15.137Z,66.79
2018-04-22T03:38:15.393Z,66.41
2018-04-22T03:39:15.109Z,66.41
2018-04-22T03:40:15.124Z,67.55
2018-04-22T03:41:15.138Z,66.89
2018-04-22T03:42:15.155Z,66.89
2018-04-22T03:43:15.174Z,67.27
2018-04-22T03:44:15.191Z,67.55
2018-04-22T03:45:15.209Z,67.46
2018-04-22T03:46:15.222Z,68.04
2018-04-22T03:47:15.240Z,67.75
2018-04-22T03:48:15.256Z,67.55
2018-04-22T03:49:15.274Z,67.84
2018-04-22T03:50:15.292Z,67.18
2018-04-22T03:51:15.312Z,67.55
2018-04-22T03:52:15.327Z,67.94
2018-04-22T03:53:15.339Z,67.43
2018-04-22T03:54:15.462Z,67.36
2018-04-22T03:55:15.374Z,67.62
2018-04-22T03:56:15.401Z,68.19
2018-04-22T03:57:15.414Z,67.62
2018-04-22T03:58:15.441Z,68.00
2018-04-22T03:59:15.445Z,68.57
2018-04-22T04:00:15.458Z,68.67
2018-04-22T04:01:15.524Z,68.57
2018-04-22T04:02:15.541Z,68.48
2018-04-22T04:03:15.514Z,68.48
2018-04-22T04:04:15.554Z,69.53
2018-04-22T04:05:15.537Z,69.91
2018-04-22T04:06:15.557Z,68.96
2018-04-22T04:07:15.662Z,69.72
2018-04-22T04:08:15.770Z,69.82
2018-04-22T04:09:15.608Z,68.86
2018-04-22T04:10:15.621Z,69.43
2018-04-22T04:11:15.653Z,69.56
2018-04-22T04:12:15.662Z,68.90
2018-04-22T04:13:15.671Z,68.61
2018-04-22T04:14:15.713Z,67.84
2018-04-22T04:15:15.706Z,67.94
2018-04-22T04:16:15.728Z,68.48
2018-04-22T04:17:15.737Z,68.61
2018-04-22T04:18:15.755Z,69.09
2018-04-22T04:19:15.777Z,67.84
2018-04-22T04:20:15.790Z,67.65
2018-04-22T04:21:15.806Z,67.94
2018-04-22T04:22:15.822Z,68.41
2018-04-22T04:23:15.844Z,68.32
2018-04-22T04:24:15.855Z,67.94
2018-04-22T04:25:15.875Z,67.94
2018-04-22T04:26:15.889Z,68.61
2018-04-22T04:27:15.905Z,68.41
2018-04-22T04:28:15.925Z,67.94
2018-04-22T04:29:15.941Z,68.04
2018-04-22T04:30:15.956Z,68.04
2018-04-22T04:31:15.972Z,68.13
2018-04-22T04:32:15.991Z,68.51
2018-04-22T04:33:16.100Z,67.84
2018-04-22T04:34:16.230Z,67.84
2018-04-22T04:35:16.087Z,68.41
2018-04-22T04:36:16.057Z,68.04
2018-04-22T04:37:16.070Z,67.27
2018-04-22T04:38:16.088Z,67.46
2018-04-22T04:40:16.124Z,67.65
2018-04-22T04:41:16.139Z,67.36
2018-04-22T04:42:16.201Z,66.79
2018-04-22T04:43:16.281Z,67.75
2018-04-22T04:44:16.203Z,67.36
2018-04-22T04:45:16.209Z,67.55
2018-04-22T04:46:16.221Z,67.36
2018-04-22T04:47:16.245Z,67.46
2018-04-22T04:48:16.256Z,68.13
2018-04-22T04:49:16.283Z,68.13
2018-04-22T04:50:16.286Z,68.51
2018-04-22T04:51:16.305Z,68.13
2018-04-22T04:52:16.324Z,68.61
2018-04-22T04:53:16.337Z,67.75
2018-04-22T04:54:16.368Z,67.84
2018-04-22T04:55:16.375Z,67.65
2018-04-22T04:56:16.401Z,67.27
2018-04-22T04:57:16.405Z,67.55
2018-04-22T04:58:16.421Z,67.94
2018-04-22T04:59:16.437Z,67.55
2018-04-22T05:00:16.477Z,67.65
2018-04-22T05:01:16.480Z,67.69
2018-04-22T05:02:16.493Z,67.40
2018-04-22T05:03:16.504Z,66.63
2018-04-22T05:04:16.523Z,66.79
2018-04-22T05:05:16.550Z,67.08
2018-04-22T05:06:16.556Z,67.55
2018-04-22T05:09:16.985Z,67.65
2018-04-22T05:10:16.742Z,67.65
2018-04-22T05:11:16.655Z,68.04
2018-04-22T05:12:16.665Z,67.65
2018-04-22T05:13:16.674Z,67.75
2018-04-22T05:14:16.697Z,67.55
2018-04-22T05:15:17.274Z,67.55
2018-04-22T05:16:16.721Z,67.75
2018-04-22T05:17:16.744Z,68.04
2018-04-22T05:18:16.757Z,67.27
2018-04-22T05:19:16.774Z,67.46
2018-04-22T05:20:16.791Z,67.65
2018-04-22T05:21:16.807Z,67.55
2018-04-22T05:22:16.827Z,67.84
2018-04-22T05:23:16.841Z,67.84
2018-04-22T05:24:16.882Z,68.04
2018-04-22T05:25:16.872Z,68.13
2018-04-22T05:26:16.891Z,67.78
2018-04-22T05:27:16.909Z,67.94
2018-04-22T05:28:16.927Z,67.18
2018-04-22T05:29:16.944Z,67.49
2018-04-22T05:30:16.969Z,67.49
2018-04-22T05:31:17.023Z,67.65
2018-04-22T05:32:16.990Z,67.69
2018-04-22T05:33:17.006Z,67.55
2018-04-22T05:34:17.023Z,67.49
2018-04-22T05:35:17.047Z,67.65
2018-04-22T05:36:17.058Z,67.59
2018-04-22T05:37:17.087Z,68.07
2018-04-22T05:38:17.097Z,67.97
2018-04-22T05:39:17.170Z,67.49
2018-04-22T05:40:17.147Z,67.69
2018-04-22T05:41:17.188Z,67.02
2018-04-22T05:42:17.168Z,67.97
2018-04-22T05:43:17.178Z,67.78
2018-04-22T05:44:17.191Z,67.97
2018-04-22T05:45:17.229Z,67.88
2018-04-22T05:46:17.313Z,67.78
2018-04-22T05:47:17.241Z,67.97
2018-04-22T05:48:17.261Z,67.88
2018-04-22T05:49:17.280Z,67.40
2018-04-22T05:50:17.293Z,67.69
2018-04-22T05:51:17.310Z,68.23
2018-04-22T05:52:17.327Z,67.88
2018-04-22T05:53:17.344Z,67.94
2018-04-22T05:54:17.360Z,67.65
2018-04-22T05:55:17.375Z,68.93
2018-04-22T05:56:17.397Z,68.26
2018-04-22T05:57:17.412Z,68.26
2018-04-22T05:58:17.452Z,68.74
2018-04-22T05:59:17.446Z,68.16
2018-04-22T06:00:17.467Z,68.45
2018-04-22T06:01:17.476Z,68.84
2018-04-22T06:02:17.543Z,68.45
2018-04-22T06:03:17.516Z,68.07
2018-04-22T06:04:17.531Z,67.30
2018-04-22T06:05:17.547Z,66.73
2018-04-22T06:06:17.562Z,67.49
2018-04-22T06:07:17.578Z,66.96
2018-04-22T06:08:17.603Z,66.67
2018-04-22T06:09:17.612Z,66.67
2018-04-22T06:10:17.629Z,67.14
2018-04-22T06:11:17.804Z,67.05
2018-04-22T06:12:17.926Z,67.05
2018-04-22T06:13:17.950Z,67.14
2018-04-22T06:14:17.698Z,66.67
2018-04-22T06:15:17.715Z,66.76
2018-04-22T06:16:17.735Z,66.76
2018-04-22T06:17:17.788Z,66.38
2018-04-22T06:18:17.764Z,66.00
2018-04-22T06:19:17.783Z,66.28
2018-04-22T06:20:17.799Z,66.96
2018-04-22T06:21:17.816Z,67.72
2018-04-22T06:22:17.965Z,67.24
2018-04-22T06:23:17.850Z,66.47
2018-04-22T06:24:17.870Z,66.57
2018-04-22T06:25:17.888Z,66.38
2018-04-22T06:26:17.900Z,66.67
2018-04-22T06:27:17.920Z,67.34
2018-04-22T06:28:17.955Z,67.05
2018-04-22T06:29:17.954Z,66.86
2018-04-22T06:30:17.968Z,66.47
2018-04-22T06:31:17.987Z,66.22
2018-04-22T06:32:18.001Z,66.13
2018-04-22T06:33:18.027Z,66.80
2018-04-22T06:34:18.035Z,65.94
2018-04-22T06:35:18.052Z,66.13
2018-04-22T06:36:18.071Z,65.58
2018-04-22T06:37:18.089Z,65.58
2018-04-22T06:38:18.103Z,64.63
2018-04-22T06:39:18.120Z,65.01
2018-04-22T06:40:18.152Z,64.53
2018-04-22T06:41:18.160Z,64.92
2018-04-22T06:42:18.211Z,64.82
2018-04-22T06:43:18.273Z,64.25
2018-04-22T06:44:18.255Z,64.28
2018-04-22T06:45:18.224Z,63.99
2018-04-22T06:46:18.244Z,63.60
2018-04-22T06:47:18.262Z,64.28
2018-04-22T06:48:18.279Z,64.28
2018-04-22T06:49:18.296Z,63.51
2018-04-22T06:50:18.312Z,63.70
2018-04-22T06:51:18.325Z,63.54
2018-04-22T06:52:18.344Z,63.35
2018-04-22T06:53:18.374Z,63.26
2018-04-22T06:54:18.380Z,63.42
2018-04-22T06:55:18.402Z,63.92
2018-04-22T06:56:18.415Z,63.83
2018-04-22T06:57:18.437Z,63.92
2018-04-22T06:58:18.448Z,63.80
2018-04-22T06:59:18.481Z,64.37
2018-04-22T07:00:18.484Z,64.37
2018-04-22T07:01:18.505Z,64.85
2018-04-22T07:02:18.519Z,65.55
2018-04-22T07:03:18.534Z,65.23
2018-04-22T07:04:18.553Z,65.55
2018-04-22T07:05:18.575Z,66.38
2018-04-22T07:06:18.586Z,65.52
2018-04-22T07:07:18.608Z,66.03
2018-04-22T07:08:18.637Z,65.65
2018-04-22T07:09:18.651Z,66.13
2018-04-22T07:10:18.657Z,65.75
2018-04-22T07:11:18.674Z,65.46
2018-04-22T07:12:18.694Z,66.22
2018-04-22T07:13:18.709Z,65.65
2018-04-22T07:14:18.726Z,65.46
2018-04-22T07:15:18.750Z,65.65
2018-04-22T07:16:18.762Z,65.78
2018-04-22T07:17:18.862Z,65.20
2018-04-22T07:18:19.293Z,65.39
2018-04-22T07:19:18.813Z,65.30
2018-04-22T07:20:18.835Z,65.39
2018-04-22T07:21:18.849Z,65.01
2018-04-22T07:22:18.904Z,65.39
2018-04-22T07:23:18.935Z,65.30
2018-04-22T07:24:18.903Z,66.64
2018-04-22T07:25:18.953Z,66.16
2018-04-22T07:26:18.938Z,65.59
2018-04-22T07:27:18.956Z,65.43
2018-04-22T07:28:18.978Z,65.43
2018-04-22T07:29:19.002Z,64.66
2018-04-22T07:31:19.629Z,65.30
2018-04-22T07:32:19.043Z,64.76
2018-04-22T07:33:19.059Z,65.14
2018-04-22T07:34:19.076Z,64.76
2018-04-22T07:35:19.099Z,64.66
2018-04-22T07:36:19.111Z,64.56
2018-04-22T07:37:19.131Z,64.76
2018-04-22T07:38:19.155Z,64.66
2018-04-22T07:39:19.167Z,64.76
2018-04-22T07:40:19.192Z,64.76
2018-04-22T07:41:19.201Z,65.14
2018-04-22T07:42:19.238Z,64.50
2018-04-22T07:43:19.239Z,64.02
2018-04-22T07:44:19.255Z,64.69
2018-04-22T07:45:19.277Z,64.31
2018-04-22T07:46:19.468Z,64.12
2018-04-22T07:47:19.309Z,64.22
2018-04-22T07:48:19.428Z,64.31
2018-04-22T07:49:19.452Z,64.79
2018-04-22T07:50:19.788Z,64.40
2018-04-22T07:51:19.383Z,64.59
2018-04-22T07:52:19.399Z,63.92
2018-04-22T07:53:19.415Z,64.02
2018-04-22T07:54:19.433Z,64.50
2018-04-22T07:55:19.449Z,64.40
2018-04-22T07:56:19.472Z,63.92
2018-04-22T07:57:19.500Z,64.40
2018-04-22T07:58:19.553Z,64.25
2018-04-22T07:59:19.523Z,64.53
2018-04-22T08:00:19.538Z,64.43
2018-04-22T08:01:19.562Z,63.86
2018-04-22T08:02:19.575Z,64.05
2018-04-22T08:03:19.594Z,64.25
2018-04-22T08:04:19.622Z,63.38
2018-04-22T08:05:19.629Z,63.96
2018-04-22T08:06:19.648Z,64.25
2018-04-22T08:07:19.669Z,63.96
2018-04-22T08:08:19.682Z,63.86
2018-04-22T08:09:19.705Z,64.63
2018-04-22T08:10:19.720Z,64.82
2018-04-22T08:11:19.743Z,64.63
2018-04-22T08:12:19.784Z,64.66
2018-04-22T08:13:19.773Z,64.85
2018-04-22T08:14:19.791Z,63.67
2018-04-22T08:15:19.815Z,64.18
2018-04-22T08:16:19.882Z,64.09
2018-04-22T08:17:19.844Z,63.60
2018-04-22T08:18:19.864Z,63.60
2018-04-22T08:19:19.881Z,63.79
2018-04-22T08:20:19.915Z,64.18
2018-04-22T08:21:19.921Z,64.31
2018-04-22T08:22:20.310Z,64.66
2018-04-22T08:23:19.954Z,63.99
2018-04-22T08:24:19.994Z,64.37
2018-04-22T08:25:19.993Z,64.02
2018-04-22T08:26:20.008Z,64.22
2018-04-22T08:27:20.030Z,63.83
2018-04-22T08:28:20.086Z,63.92
2018-04-22T08:29:20.075Z,64.02
2018-04-22T08:30:20.082Z,64.02
2018-04-22T08:31:20.134Z,64.02
2018-04-22T08:32:20.184Z,64.02
2018-04-22T08:33:20.187Z,63.54
2018-04-22T08:34:20.155Z,64.12
2018-04-22T08:35:20.176Z,64.02
2018-04-22T08:36:20.193Z,64.34
2018-04-22T08:38:20.236Z,63.86
2018-04-22T08:39:20.918Z,63.95
2018-04-22T08:40:20.276Z,63.86
2018-04-22T08:41:20.296Z,64.25
2018-04-22T08:42:20.306Z,63.86
2018-04-22T08:43:20.320Z,63.28
2018-04-22T08:44:20.340Z,63.60
2018-04-22T08:45:20.362Z,62.90
2018-04-22T08:46:20.375Z,63.31
2018-04-22T08:47:20.395Z,63.41
2018-04-22T08:48:20.412Z,63.12
2018-04-22T08:49:20.439Z,62.74
2018-04-22T08:50:20.461Z,62.83
2018-04-22T08:51:20.469Z,62.74
2018-04-22T08:52:20.489Z,62.35
2018-04-22T08:53:20.505Z,62.74
2018-04-22T08:54:20.557Z,63.22
2018-04-22T08:55:20.560Z,62.64
2018-04-22T08:56:20.562Z,62.74
2018-04-22T08:57:20.590Z,63.12
2018-04-22T08:58:20.629Z,62.64
2018-04-22T08:59:20.639Z,63.31
2018-04-22T09:00:20.649Z,63.15
2018-04-22T09:01:20.662Z,62.96
2018-04-22T09:02:20.692Z,62.77
2018-04-22T09:03:20.698Z,63.15
2018-04-22T09:04:20.714Z,62.57
2018-04-22T09:05:20.782Z,62.38
2018-04-22T09:06:20.804Z,62.77
2018-04-22T09:07:20.832Z,62.41
2018-04-22T09:08:20.792Z,61.93
2018-04-22T09:09:20.810Z,61.93
2018-04-22T09:10:20.825Z,61.45
2018-04-22T09:11:20.852Z,62.12
2018-04-22T09:12:20.874Z,61.68
2018-04-22T09:15:20.922Z,61.87
2018-04-22T09:16:20.962Z,61.58
2018-04-22T09:17:20.958Z,61.48
2018-04-22T09:18:20.976Z,61.58
2018-04-22T09:19:21.005Z,60.61
2018-04-22T09:20:21.024Z,60.32
2018-04-22T09:21:21.042Z,60.61
2018-04-22T09:22:21.055Z,60.61
2018-04-22T09:23:21.213Z,60.23
2018-04-22T09:24:21.456Z,60.80
2018-04-22T09:25:21.555Z,60.83
2018-04-22T09:26:21.176Z,59.87
2018-04-22T09:27:21.150Z,59.87
2018-04-22T09:28:21.170Z,59.30
2018-04-22T09:29:21.188Z,59.42
2018-04-22T09:30:21.212Z,59.52
2018-04-22T09:31:21.238Z,59.71
2018-04-22T09:32:21.250Z,59.61
2018-04-22T09:33:21.264Z,59.61
2018-04-22T09:34:21.290Z,59.61
2018-04-22T09:35:21.303Z,59.71
2018-04-22T09:36:21.337Z,59.61
2018-04-22T09:37:21.807Z,58.36
2018-04-22T09:38:21.451Z,58.84
2018-04-22T09:39:21.406Z,58.55
2018-04-22T09:40:21.408Z,58.75
2018-04-22T09:41:21.427Z,59.23
2018-04-22T09:42:21.444Z,59.42
2018-04-22T09:43:21.480Z,58.65
2018-04-22T09:44:21.481Z,58.84
2018-04-22T09:45:21.499Z,58.75
2018-04-22T09:46:21.518Z,58.39
2018-04-22T09:47:21.647Z,58.68
2018-04-22T09:48:21.622Z,58.58
2018-04-22T09:49:21.576Z,58.29
2018-04-22T09:50:21.598Z,57.32
2018-04-22T09:51:21.619Z,58.10
2018-04-22T09:52:21.636Z,58.10
2018-04-22T09:53:21.687Z,57.52
2018-04-22T09:54:21.675Z,58.19
2018-04-22T09:55:21.706Z,57.90
2018-04-22T09:56:21.742Z,57.54
2018-04-22T09:58:21.746Z,56.87
2018-04-22T09:59:21.846Z,56.10
2018-04-22T10:00:21.787Z,56.29
2018-04-22T10:01:21.806Z,55.23
2018-04-22T10:02:21.830Z,54.87
2018-04-22T10:03:21.849Z,55.55
2018-04-22T10:04:21.866Z,55.35
2018-04-22T10:05:21.892Z,54.77
2018-04-22T10:06:21.921Z,55.26
2018-04-22T10:07:21.946Z,55.16
2018-04-22T10:08:21.955Z,55.16
2018-04-22T10:09:21.963Z,55.26
2018-04-22T10:10:21.986Z,54.97
2018-04-22T10:11:22.073Z,55.45
2018-04-22T10:12:22.033Z,55.35
2018-04-22T10:13:22.047Z,55.83
2018-04-22T10:14:22.064Z,56.03
2018-04-22T10:15:22.085Z,55.83
2018-04-22T10:16:22.109Z,55.35
2018-04-22T10:17:22.141Z,55.26
2018-04-22T10:18:22.149Z,55.55
2018-04-22T10:19:22.166Z,54.77
2018-04-22T10:20:22.187Z,55.55
2018-04-22T10:21:22.206Z,55.55
2018-04-22T10:22:22.329Z,56.13
2018-04-22T10:23:22.247Z,55.16
2018-04-22T10:24:22.268Z,55.87
2018-04-22T10:25:22.285Z,54.80
2018-04-22T10:26:22.310Z,54.83
2018-04-22T10:27:22.335Z,54.25
2018-04-22T10:28:22.346Z,54.22
2018-04-22T10:29:22.367Z,54.32
2018-04-22T10:30:22.417Z,54.35
2018-04-22T10:31:22.408Z,53.19
2018-04-22T10:32:22.430Z,53.38
2018-04-22T10:33:22.509Z,53.38
2018-04-22T10:34:22.772Z,53.47
2018-04-22T10:35:22.497Z,53.31
2018-04-22T10:36:22.515Z,53.11
2018-04-22T10:37:22.536Z,53.99
2018-04-22T10:38:22.552Z,53.02
2018-04-22T10:39:22.578Z,53.50
2018-04-22T10:40:22.592Z,53.21
2018-04-22T10:41:22.615Z,53.11
2018-04-22T10:42:22.651Z,53.99
2018-04-22T10:43:22.654Z,53.11
2018-04-22T10:44:22.681Z,53.11
2018-04-22T10:45:22.697Z,53.72
2018-04-22T10:46:22.732Z,52.95
2018-04-22T10:47:22.754Z,52.95
2018-04-22T10:48:22.756Z,51.68
2018-04-22T10:49:22.840Z,51.01
2018-04-22T10:50:22.802Z,51.59
2018-04-22T10:51:22.828Z,51.40
2018-04-22T10:52:22.841Z,51.78
2018-04-22T10:53:22.906Z,52.08
2018-04-22T10:54:23.046Z,52.17
2018-04-22T10:55:22.907Z,52.66
2018-04-22T10:56:23.244Z,51.59
2018-04-22T10:57:23.215Z,51.50
2018-04-22T10:59:22.989Z,51.62
2018-04-22T11:00:23.037Z,49.77
2018-04-22T11:01:23.030Z,50.35
2018-04-22T11:02:23.047Z,49.12
2018-04-22T11:03:23.071Z,49.02
2018-04-22T11:04:23.094Z,49.32
2018-04-22T11:05:23.182Z,49.12
2018-04-22T11:06:23.153Z,49.32
2018-04-22T11:07:23.205Z,49.41
2018-04-22T11:08:23.176Z,48.93
2018-04-22T11:09:23.195Z,49.32
2018-04-22T11:10:23.217Z,49.51
2018-04-22T11:11:23.243Z,48.54
2018-04-22T11:12:23.266Z,48.35
2018-04-22T11:13:23.280Z,48.74
2018-04-22T11:14:23.319Z,48.25
2018-04-22T11:15:23.324Z,48.66
2018-04-22T11:16:23.345Z,49.12
2018-04-22T11:17:23.363Z,48.74
2018-04-22T11:18:23.387Z,49.41
2018-04-22T11:19:23.407Z,48.44
2018-04-22T11:20:23.437Z,48.47
2018-04-22T11:21:23.754Z,48.08
2018-04-22T11:22:23.478Z,47.11
2018-04-22T11:23:23.491Z,46.92
2018-04-22T11:24:23.521Z,46.72
2018-04-22T11:25:23.536Z,47.20
2018-04-22T11:26:23.560Z,47.79
2018-04-22T11:27:23.600Z,47.47
2018-04-22T11:28:23.603Z,48.35
2018-04-22T11:29:23.727Z,48.06
2018-04-22T11:30:23.643Z,47.38
2018-04-22T11:32:23.685Z,46.14
2018-04-22T11:33:23.706Z,46.04
2018-04-22T11:34:23.732Z,47.02
2018-04-22T11:35:23.753Z,46.53
2018-04-22T11:36:23.771Z,47.11
2018-04-22T11:37:23.809Z,46.84
2018-04-22T11:38:23.814Z,46.65
2018-04-22T11:39:23.864Z,46.07
2018-04-22T11:40:23.858Z,46.96
2018-04-22T11:41:23.880Z,46.19
2018-04-22T11:42:23.906Z,44.73
2018-04-22T11:43:23.928Z,44.64
2018-04-22T11:44:23.944Z,45.70
2018-04-22T11:45:23.967Z,46.19
2018-04-22T11:46:23.989Z,44.15
2018-04-22T11:47:24.012Z,43.59
2018-04-22T11:48:24.035Z,43.49
2018-04-22T11:49:24.058Z,43.59
2018-04-22T11:50:24.085Z,42.71
2018-04-22T11:52:24.121Z,42.91
2018-04-22T11:53:24.154Z,42.30
2018-04-22T11:54:24.174Z,42.50
2018-04-22T11:55:24.197Z,42.79
2018-04-22T11:56:24.216Z,41.94
2018-04-22T11:57:24.232Z,42.23
2018-04-22T11:58:24.260Z,42.03
2018-04-22T11:59:24.282Z,41.74
2018-04-22T12:00:24.308Z,41.74
2018-04-22T12:01:24.329Z,41.26
2018-04-22T12:02:24.369Z,41.94
2018-04-22T12:03:24.372Z,40.67
2018-04-22T12:04:24.388Z,40.67
2018-04-22T12:05:24.410Z,41.45
2018-04-22T12:06:24.432Z,40.89
2018-04-22T12:07:24.522Z,41.96
2018-04-22T12:08:24.507Z,40.99
2018-04-22T12:09:24.503Z,40.11
2018-04-22T12:10:24.547Z,40.41
2018-04-22T12:11:24.549Z,39.92
2018-04-22T12:12:24.566Z,38.37
2018-04-22T12:13:24.591Z,38.27
2018-04-22T12:14:24.613Z,37.98
2018-04-22T12:15:24.634Z,39.14
2018-04-22T12:16:24.656Z,39.62
2018-04-22T12:17:24.681Z,37.49
2018-04-22T12:18:24.701Z,37.30
2018-04-22T12:19:24.723Z,37.30
2018-04-22T12:20:24.761Z,38.29
2018-04-22T12:21:24.767Z,37.51
2018-04-22T12:22:24.791Z,37.02
2018-04-22T12:23:24.817Z,37.32
2018-04-22T12:24:24.837Z,35.88
2018-04-22T12:25:24.859Z,35.10
2018-04-22T12:26:24.882Z,34.80
2018-04-22T12:27:24.905Z,34.88
2018-04-22T12:28:24.962Z,35.66
2018-04-22T12:29:25.013Z,36.93
2018-04-22T12:30:24.980Z,37.12
2018-04-22T12:31:24.996Z,37.60
2018-04-22T12:32:25.017Z,37.12
2018-04-22T12:33:25.039Z,36.24
2018-04-22T12:34:25.084Z,36.34
2018-04-22T12:35:25.085Z,37.02
2018-04-22T12:36:25.114Z,36.24
2018-04-22T12:37:25.131Z,36.83
2018-04-22T12:38:25.154Z,36.44
2018-04-22T12:39:25.213Z,37.43
2018-04-22T12:40:25.203Z,34.59
2018-04-22T12:41:25.286Z,31.98
2018-04-22T12:42:25.253Z,31.79
2018-04-22T12:43:25.268Z,30.74
2018-04-22T12:44:25.294Z,30.93
2018-04-22T12:45:25.315Z,31.13
2018-04-22T12:46:25.336Z,32.00
2018-04-22T12:47:25.362Z,32.39
2018-04-22T12:48:25.383Z,31.04
2018-04-22T12:49:25.411Z,29.57
2018-04-22T12:50:25.437Z,29.38
2018-04-22T12:51:25.451Z,30.46
2018-04-22T12:52:25.480Z,31.14
2018-04-22T12:53:25.507Z,29.86
2018-04-22T12:54:25.538Z,30.64
2018-04-22T12:55:25.551Z,30.26
2018-04-22T12:56:25.572Z,31.43
2018-04-22T12:57:25.599Z,30.94
2018-04-22T12:58:25.612Z,30.26
2018-04-22T12:59:25.633Z,31.24
2018-04-22T13:00:25.660Z,30.57
2018-04-22T13:01:25.695Z,30.85
2018-04-22T13:02:25.703Z,31.34
2018-04-22T13:03:25.725Z,30.07
2018-04-22T13:04:25.758Z,29.88
2018-04-22T13:05:25.786Z,30.75
2018-04-22T13:06:25.808Z,30.65
2018-04-22T13:07:25.822Z,29.78
2018-04-22T13:08:25.898Z,29.88
2018-04-22T13:10:26.093Z,29.97